Northwood, Maryland
Current Conditions -  °F | °C
As of 5:55 AM on Thursday 18 Dec 2014 (Local Time) from KMTN Reporting Station
Overcast Overcast  
Wind Chill: 30°   Ceiling: 4700
Heat Index: 37°   Visibility: 10mi
Dew Point: 21°   Wind: 12mph
Humidity: 52%   Direction: 270°W
Pressure: 30.12"   Gusts: 16mph
Location:  39.3649°N, 76.5875°W
Report Text: KMTN 181055Z 27010G14KT 10SM OVC047 03/M06 A3012 RMK FIRST
Loading
Personal Weather Stations






























Interactive Weather Map New forecast layout! Learn more

10-Day Weather Forecast

Advertisements
Track Severe Weather on mobile